createdAt,value
2023-01-12T00:02:24.965Z,1.80
2023-01-12T00:04:52.686Z,2.10
2023-01-12T00:07:21.127Z,1.57
2023-01-12T00:09:49.007Z,1.30
2023-01-12T00:12:17.051Z,1.90
2023-01-12T00:14:44.733Z,1.73
2023-01-12T00:17:15.062Z,1.53
2023-01-12T00:19:45.304Z,1.93
2023-01-12T00:22:17.386Z,1.80
2023-01-12T00:24:55.099Z,1.60
2023-01-12T00:27:23.566Z,2.00
2023-01-12T00:29:53.984Z,2.00
2023-01-12T00:32:22.351Z,1.60
2023-01-12T00:34:50.958Z,2.40
2023-01-12T00:37:20.403Z,2.10
2023-01-12T00:40:01.327Z,1.70
2023-01-12T00:42:47.969Z,1.67
2023-01-12T00:45:25.085Z,1.93
2023-01-12T00:47:54.367Z,1.93
2023-01-12T00:50:24.261Z,2.00
2023-01-12T00:52:52.547Z,1.60
2023-01-12T00:55:21.567Z,1.67
2023-01-12T00:57:50.092Z,2.00
2023-01-12T01:00:22.131Z,1.70
2023-01-12T01:02:54.064Z,2.07
2023-01-12T01:05:22.265Z,2.37
2023-01-12T01:07:50.437Z,1.53
2023-01-12T01:10:18.497Z,2.40
2023-01-12T01:12:48.577Z,2.60
2023-01-12T01:15:16.624Z,1.87
2023-01-12T01:17:44.281Z,1.77
2023-01-12T01:20:15.751Z,2.13
2023-01-12T01:22:43.460Z,1.60
2023-01-12T01:25:11.600Z,1.80
2023-01-12T01:27:39.370Z,1.43
2023-01-12T01:30:08.069Z,1.67
2023-01-12T01:32:36.858Z,1.57
2023-01-12T01:35:04.753Z,1.30
2023-01-12T01:37:34.113Z,1.60
2023-01-12T01:40:01.896Z,1.50
2023-01-12T01:42:30.104Z,1.50
2023-01-12T01:45:01.092Z,1.70
2023-01-12T01:47:41.891Z,1.93
2023-01-12T01:50:24.536Z,1.30
2023-01-12T01:52:56.930Z,1.90
2023-01-12T01:55:27.338Z,1.50
2023-01-12T01:58:21.049Z,1.50
2023-01-12T02:00:48.896Z,1.80
2023-01-12T02:03:16.553Z,1.70
2023-01-12T02:05:46.669Z,2.10
2023-01-12T02:08:29.708Z,1.57
2023-01-12T02:11:00.006Z,1.10
2023-01-12T02:13:49.651Z,1.50
2023-01-12T02:16:28.364Z,1.67
2023-01-12T02:19:15.283Z,1.57
2023-01-12T02:22:04.115Z,1.60
2023-01-12T02:24:34.819Z,1.23
2023-01-12T02:27:20.659Z,2.10
2023-01-12T02:30:26.274Z,1.40
2023-01-12T02:33:22.140Z,1.70
2023-01-12T02:36:11.250Z,1.30
2023-01-12T02:38:51.536Z,1.30
2023-01-12T02:41:59.630Z,1.63
2023-01-12T02:44:54.062Z,1.37
2023-01-12T02:48:02.755Z,1.50
2023-01-12T02:50:52.383Z,2.00
2023-01-12T02:53:23.029Z,1.70
2023-01-12T02:55:50.820Z,2.20
2023-01-12T02:58:19.576Z,1.40
2023-01-12T03:00:49.163Z,1.33
2023-01-12T03:03:18.228Z,1.67
2023-01-12T03:05:49.385Z,1.50
2023-01-12T03:08:19.907Z,1.87
2023-01-12T03:11:03.443Z,1.40
2023-01-12T03:13:32.575Z,1.57
2023-01-12T03:16:00.376Z,1.43
2023-01-12T03:18:48.477Z,1.63
2023-01-12T03:21:23.389Z,1.93
2023-01-12T03:23:56.010Z,2.30
2023-01-12T03:26:24.923Z,2.03
2023-01-12T03:29:01.106Z,1.60
2023-01-12T03:31:30.987Z,1.80
2023-01-12T03:33:58.487Z,1.57
2023-01-12T03:36:52.403Z,1.80
2023-01-12T03:39:39.149Z,2.47
2023-01-12T03:42:19.422Z,2.13
2023-01-12T03:45:00.897Z,1.60
2023-01-12T03:47:30.738Z,1.47
2023-01-12T03:50:16.042Z,2.20
2023-01-12T03:52:45.176Z,1.67
2023-01-12T03:55:16.635Z,1.70
2023-01-12T03:57:45.583Z,2.13
2023-01-12T04:00:14.057Z,1.83
2023-01-12T04:02:45.746Z,5.03
2023-01-12T04:05:14.576Z,6.10
2023-01-12T04:07:43.509Z,2.57
2023-01-12T04:10:13.132Z,1.30
2023-01-12T04:12:42.832Z,1.10
2023-01-12T04:15:12.452Z,2.00
2023-01-12T04:17:43.233Z,1.83
2023-01-12T04:20:14.475Z,1.77
2023-01-12T04:22:46.617Z,1.33
2023-01-12T04:25:17.165Z,2.17
2023-01-12T04:27:59.978Z,1.77
2023-01-12T04:30:28.610Z,2.03
2023-01-12T04:32:56.555Z,2.67
2023-01-12T04:35:25.069Z,2.77
2023-01-12T04:37:54.831Z,2.50
2023-01-12T04:40:24.025Z,2.87
2023-01-12T04:43:02.194Z,1.53
2023-01-12T04:45:31.896Z,1.80
2023-01-12T04:48:10.073Z,1.70
2023-01-12T04:50:38.670Z,1.60
2023-01-12T04:53:08.826Z,1.50
2023-01-12T04:55:37.633Z,0.93
2023-01-12T04:58:06.460Z,1.70
2023-01-12T05:00:34.635Z,1.20
2023-01-12T05:03:03.183Z,1.13
2023-01-12T05:05:31.887Z,1.43
2023-01-12T05:08:22.461Z,1.20
2023-01-12T05:10:54.905Z,2.13
2023-01-12T05:13:23.930Z,2.73
2023-01-12T05:15:53.676Z,2.23
2023-01-12T05:18:21.726Z,1.33
2023-01-12T05:20:50.051Z,1.67
2023-01-12T05:23:18.409Z,1.37
2023-01-12T05:25:47.055Z,1.40
2023-01-12T05:28:16.449Z,0.97
2023-01-12T05:30:44.214Z,1.30
2023-01-12T05:33:18.523Z,1.10
2023-01-12T05:35:46.746Z,1.23
2023-01-12T05:38:15.437Z,1.17
2023-01-12T05:40:43.334Z,1.10
2023-01-12T05:43:51.262Z,1.70
2023-01-12T05:46:26.409Z,1.40
2023-01-12T05:48:57.120Z,1.70
2023-01-12T05:51:26.547Z,1.87
2023-01-12T05:53:55.422Z,3.17
2023-01-12T05:56:27.553Z,9.97
2023-01-12T05:58:59.326Z,10.37
2023-01-12T06:01:29.593Z,20.80
2023-01-12T06:03:59.198Z,18.57
2023-01-12T06:06:33.624Z,5.30
2023-01-12T06:09:03.681Z,4.03
2023-01-12T06:11:51.216Z,4.80
2023-01-12T06:14:20.587Z,2.37
2023-01-12T06:16:48.415Z,3.00
2023-01-12T06:19:21.076Z,4.37
2023-01-12T06:21:49.761Z,3.77
2023-01-12T06:24:17.492Z,2.80
2023-01-12T06:26:45.941Z,1.33
2023-01-12T06:29:15.092Z,1.20
2023-01-12T06:31:44.573Z,2.17
2023-01-12T06:34:13.048Z,1.60
2023-01-12T06:36:41.694Z,1.43
2023-01-12T06:39:10.525Z,1.30
2023-01-12T06:41:56.561Z,2.43
2023-01-12T06:44:24.414Z,2.10
2023-01-12T06:46:52.076Z,2.10
2023-01-12T06:49:20.944Z,2.70
2023-01-12T06:51:52.026Z,11.40
2023-01-12T06:54:21.442Z,3.97
2023-01-12T06:56:50.501Z,1.40
2023-01-12T06:59:19.625Z,47.90
2023-01-12T07:01:49.324Z,34.20
2023-01-12T07:04:19.383Z,9.40
2023-01-12T07:06:48.768Z,7.03
2023-01-12T07:09:16.571Z,3.60
2023-01-12T07:11:45.474Z,2.90
2023-01-12T07:14:13.215Z,13.90
2023-01-12T07:16:40.960Z,9.97
2023-01-12T07:19:08.684Z,10.70
2023-01-12T07:21:40.391Z,13.50
2023-01-12T07:24:08.759Z,10.43
2023-01-12T07:26:36.354Z,4.37
2023-01-12T07:29:07.034Z,2.90
2023-01-12T07:31:34.995Z,2.10
2023-01-12T07:34:03.546Z,1.40
2023-01-12T07:36:31.744Z,1.90
2023-01-12T07:38:59.991Z,2.57
2023-01-12T07:41:46.494Z,4.10
2023-01-12T07:44:16.748Z,6.30
2023-01-12T07:46:46.053Z,7.10
2023-01-12T07:49:15.324Z,7.77
2023-01-12T07:51:43.977Z,8.20
2023-01-12T07:54:12.095Z,7.23
2023-01-12T07:56:40.579Z,6.37
2023-01-12T07:59:08.960Z,5.50
2023-01-12T08:01:38.218Z,6.90
2023-01-12T08:04:06.398Z,3.20
2023-01-12T08:06:58.510Z,2.57
2023-01-12T08:09:29.093Z,2.50
2023-01-12T08:12:07.024Z,1.67
2023-01-12T08:14:37.929Z,2.80
2023-01-12T08:17:08.958Z,4.47
2023-01-12T08:19:42.016Z,4.70
2023-01-12T08:22:13.861Z,4.93
2023-01-12T08:24:45.055Z,5.10
2023-01-12T08:27:13.935Z,3.37
2023-01-12T08:29:44.870Z,3.40
2023-01-12T08:32:13.983Z,2.90
2023-01-12T08:34:43.967Z,4.30
2023-01-12T08:37:13.358Z,6.07
2023-01-12T08:39:41.454Z,4.10
2023-01-12T08:42:10.442Z,2.13
2023-01-12T08:44:38.965Z,2.23
2023-01-12T08:47:08.485Z,2.47
2023-01-12T08:49:36.638Z,3.37
2023-01-12T08:52:04.577Z,2.63
2023-01-12T08:54:33.537Z,2.07
2023-01-12T08:57:02.357Z,2.30
2023-01-12T08:59:30.376Z,2.60
2023-01-12T09:01:59.561Z,2.33
2023-01-12T09:04:33.737Z,2.80
2023-01-12T09:07:04.000Z,3.30
2023-01-12T09:09:32.606Z,3.07
2023-01-12T09:12:01.090Z,4.30
2023-01-12T09:14:28.885Z,4.50
2023-01-12T09:16:59.424Z,5.40
2023-01-12T09:19:27.634Z,8.40
2023-01-12T09:21:58.127Z,8.27
2023-01-12T09:24:25.799Z,5.50
2023-01-12T09:26:54.733Z,6.20
2023-01-12T09:29:23.680Z,6.60
2023-01-12T09:42:36.259Z,5.73
2023-01-12T09:45:40.813Z,8.20
2023-01-12T09:48:12.132Z,7.37
2023-01-12T09:51:20.040Z,10.33
2023-01-12T09:53:54.363Z,10.03
2023-01-12T09:56:53.351Z,10.93
2023-01-12T09:59:29.069Z,10.00
2023-01-12T10:01:58.576Z,7.13
2023-01-12T10:04:27.173Z,12.57
2023-01-12T10:06:57.532Z,16.87
2023-01-12T10:09:29.144Z,11.23
2023-01-12T10:12:24.951Z,4.80
2023-01-12T10:15:09.468Z,3.80
2023-01-12T10:17:51.655Z,2.70
2023-01-12T10:21:01.787Z,3.00
2023-01-12T10:23:30.122Z,4.43
2023-01-12T10:26:24.936Z,1.60
2023-01-12T10:28:54.937Z,1.90
2023-01-12T10:31:27.530Z,3.70
2023-01-12T10:34:08.124Z,1.20
2023-01-12T10:36:45.325Z,1.27
2023-01-12T10:39:32.520Z,0.73
2023-01-12T10:42:42.797Z,1.00
2023-01-12T10:45:23.389Z,1.27
2023-01-12T10:47:54.003Z,0.80
2023-01-12T10:50:29.070Z,1.10
2023-01-12T10:53:04.777Z,0.97
2023-01-12T10:55:40.755Z,0.97
2023-01-12T10:58:28.670Z,0.90
2023-01-12T11:00:57.425Z,0.93
2023-01-12T11:03:32.941Z,1.13
2023-01-12T11:06:25.466Z,2.10
2023-01-12T11:08:53.117Z,3.60
2023-01-12T11:11:32.949Z,3.90
2023-01-12T11:14:05.879Z,4.17
2023-01-12T11:16:40.939Z,3.70
2023-01-12T11:19:18.832Z,3.63
2023-01-12T11:21:56.657Z,3.80
2023-01-12T11:24:45.949Z,4.20
2023-01-12T11:27:36.989Z,4.00
2023-01-12T11:30:19.110Z,4.53
2023-01-12T11:32:55.150Z,4.90
2023-01-12T11:35:39.288Z,3.27
2023-01-12T11:38:18.617Z,3.00
2023-01-12T11:40:46.196Z,3.17
2023-01-12T11:43:40.473Z,3.00
2023-01-12T11:46:36.476Z,3.20
2023-01-12T11:49:19.669Z,2.80
2023-01-12T11:51:52.720Z,2.20
2023-01-12T11:54:26.334Z,3.13
2023-01-12T11:57:14.311Z,2.63
2023-01-12T12:00:00.535Z,1.87
2023-01-12T12:02:42.678Z,2.07
2023-01-12T12:05:48.298Z,3.30
2023-01-12T12:08:18.953Z,2.80
2023-01-12T12:11:07.364Z,2.10
2023-01-12T12:13:51.279Z,1.80
2023-01-12T12:16:22.006Z,1.97
2023-01-12T12:19:15.701Z,2.27
2023-01-12T12:22:22.032Z,1.70
2023-01-12T12:25:10.649Z,2.47
2023-01-12T12:27:54.380Z,1.77
2023-01-12T12:30:47.164Z,2.43
2023-01-12T12:33:53.629Z,1.83
2023-01-12T12:36:31.485Z,2.47
2023-01-12T12:39:08.160Z,2.33
2023-01-12T12:42:02.389Z,2.20
2023-01-12T12:44:56.987Z,1.90
2023-01-12T12:48:02.728Z,2.33
2023-01-12T12:50:32.140Z,1.57
2023-01-12T12:53:14.953Z,1.63
2023-01-12T12:55:44.295Z,2.30
2023-01-12T12:58:25.523Z,2.33
2023-01-12T13:00:57.652Z,1.83
2023-01-12T13:03:41.358Z,2.37
2023-01-12T13:06:27.002Z,2.10
2023-01-12T13:08:59.015Z,1.57
2023-01-12T13:19:02.988Z,1.50
2023-01-12T13:21:43.716Z,1.40
2023-01-12T13:24:12.247Z,2.23
2023-01-12T13:26:44.077Z,1.60
2023-01-12T13:29:30.399Z,1.77
2023-01-12T13:32:19.205Z,2.40
2023-01-12T13:34:47.539Z,1.83
2023-01-12T13:37:30.260Z,2.03
2023-01-12T13:40:13.064Z,2.50
2023-01-12T13:42:59.594Z,3.30
2023-01-12T13:45:27.686Z,2.80
2023-01-12T13:47:55.503Z,2.63
2023-01-12T13:50:25.351Z,3.37
2023-01-12T13:53:04.501Z,3.20
2023-01-12T13:55:33.689Z,2.67
2023-01-12T13:58:19.076Z,4.57
2023-01-12T14:00:58.727Z,3.63
2023-01-12T14:03:46.472Z,3.63
2023-01-12T14:06:30.071Z,3.00
2023-01-12T14:09:01.084Z,2.73
2023-01-12T14:11:47.047Z,3.03
2023-01-12T14:14:58.166Z,3.10
2023-01-12T14:17:47.166Z,3.07
2023-01-12T14:20:25.835Z,2.47
2023-01-12T14:23:22.903Z,2.90
2023-01-12T14:26:08.905Z,2.17
2023-01-12T14:28:39.286Z,2.53
2023-01-12T14:31:09.932Z,2.93
2023-01-12T14:56:18.482Z,2.60
2023-01-12T14:58:47.949Z,3.10
2023-01-12T15:01:34.770Z,2.40
2023-01-12T15:04:04.393Z,2.93
2023-01-12T15:06:38.961Z,2.37
2023-01-12T15:09:11.545Z,1.83
2023-01-12T15:11:40.663Z,1.70
2023-01-12T15:14:23.135Z,2.37
2023-01-12T15:17:09.786Z,2.60
2023-01-12T15:19:55.748Z,2.90
2023-01-12T15:22:45.917Z,2.80
2023-01-12T15:25:37.768Z,2.10
2023-01-12T15:28:07.065Z,3.00
2023-01-12T15:30:39.898Z,1.97
2023-01-12T15:33:11.500Z,1.90
2023-01-12T15:35:44.512Z,2.30
2023-01-12T15:38:16.616Z,1.83
2023-01-12T15:40:45.659Z,2.50
2023-01-12T15:43:19.335Z,2.57
2023-01-12T15:45:50.638Z,2.07
2023-01-12T15:48:18.585Z,2.20
2023-01-12T15:50:48.717Z,2.90
2023-01-12T15:53:22.880Z,2.70
2023-01-12T15:55:52.057Z,2.50
2023-01-12T15:58:20.533Z,3.40
2023-01-12T16:00:48.222Z,3.50
2023-01-12T16:03:48.272Z,3.70
2023-01-12T16:06:04.289Z,2.23
2023-01-12T16:08:32.680Z,3.43
2023-01-12T16:11:18.485Z,3.40
2023-01-12T16:13:48.932Z,3.40
2023-01-12T16:16:18.171Z,3.03
2023-01-12T16:18:46.859Z,3.10
2023-01-12T16:21:16.696Z,2.40
2023-01-12T16:23:46.499Z,3.40
2023-01-12T16:26:15.635Z,2.80
2023-01-12T16:28:47.225Z,2.20
2023-01-12T16:31:15.264Z,2.20
2023-01-12T16:33:44.763Z,2.30
2023-01-12T16:36:14.694Z,2.13
2023-01-12T16:38:43.034Z,1.47
2023-01-12T16:41:14.361Z,1.80
2023-01-12T16:43:42.697Z,1.90
2023-01-12T16:46:11.190Z,2.17
2023-01-12T16:48:42.373Z,2.80
2023-01-12T16:51:18.314Z,1.50
2023-01-12T16:53:47.453Z,1.93
2023-01-12T16:56:16.912Z,1.70
2023-01-12T16:58:48.809Z,1.97
2023-01-12T17:01:20.796Z,2.60
2023-01-12T17:03:52.421Z,1.83
2023-01-12T17:06:23.663Z,1.70
2023-01-12T17:08:51.327Z,2.43
2023-01-12T17:11:25.029Z,1.67
2023-01-12T17:13:57.335Z,3.20
2023-01-12T17:16:26.429Z,2.00
2023-01-12T17:18:58.354Z,1.50
2023-01-12T17:21:26.119Z,2.20
2023-01-12T17:23:56.310Z,2.87
2023-01-12T17:26:26.312Z,2.37
2023-01-12T17:29:07.972Z,1.93
2023-01-12T17:31:36.123Z,2.20
2023-01-12T17:34:04.702Z,2.20
2023-01-12T17:36:35.804Z,3.27
2023-01-12T17:39:04.083Z,2.13
2023-01-12T17:41:51.018Z,3.23
2023-01-12T17:44:25.974Z,2.53
2023-01-12T17:46:54.922Z,2.53
2023-01-12T17:49:23.838Z,2.50
2023-01-12T17:51:52.208Z,2.83
2023-01-12T17:54:20.936Z,2.60
2023-01-12T17:56:50.752Z,2.40
2023-01-12T17:59:23.419Z,2.70
2023-01-12T18:02:01.056Z,2.83
2023-01-12T18:04:29.258Z,3.27
2023-01-12T18:06:58.392Z,2.80
2023-01-12T18:09:29.947Z,3.20
2023-01-12T18:11:57.440Z,2.97
2023-01-12T18:14:25.863Z,2.93
2023-01-12T18:16:56.173Z,2.80
2023-01-12T18:19:26.769Z,2.67
2023-01-12T18:21:54.434Z,2.93
2023-01-12T18:24:23.768Z,2.93
2023-01-12T18:26:52.149Z,3.63
2023-01-12T18:29:21.038Z,2.77
2023-01-12T18:31:51.223Z,3.50
2023-01-12T18:34:19.877Z,3.23
2023-01-12T18:36:50.006Z,2.70
2023-01-12T18:39:22.733Z,2.80
2023-01-12T18:42:10.349Z,7.70
2023-01-12T18:44:39.512Z,6.00
2023-01-12T18:47:27.508Z,6.50
2023-01-12T18:50:05.534Z,6.70
2023-01-12T18:52:51.584Z,5.33
2023-01-12T18:55:20.949Z,4.73
2023-01-12T18:57:49.111Z,6.47
2023-01-12T19:00:23.542Z,5.80
2023-01-12T19:02:51.642Z,8.87
2023-01-12T19:05:35.206Z,6.30
2023-01-12T19:08:26.020Z,5.60
2023-01-12T19:10:54.146Z,6.83
2023-01-12T19:13:40.403Z,5.90
2023-01-12T19:16:28.752Z,5.10
2023-01-12T19:18:56.879Z,5.33
2023-01-12T19:21:43.225Z,5.77
2023-01-12T19:24:30.194Z,5.67
2023-01-12T19:27:16.869Z,4.83
2023-01-12T19:29:47.995Z,5.43
2023-01-12T19:32:25.231Z,4.70
2023-01-12T20:02:54.486Z,8.30
2023-01-12T20:55:18.688Z,4.43
2023-01-12T21:02:59.196Z,16.73
2023-01-12T22:18:23.208Z,9.47
2023-01-12T22:21:26.632Z,7.23
2023-01-12T22:24:07.775Z,5.40
2023-01-12T22:26:37.686Z,5.23
2023-01-12T22:29:09.817Z,5.63
2023-01-12T22:31:37.992Z,4.40
2023-01-12T22:38:22.897Z,6.07
2023-01-12T22:40:53.030Z,6.33
2023-01-12T22:43:26.842Z,4.87
2023-01-12T22:45:58.616Z,4.10
2023-01-12T22:48:29.013Z,3.87
2023-01-12T22:51:00.362Z,4.97
2023-01-12T22:53:30.366Z,4.60
2023-01-12T22:56:03.847Z,4.50
2023-01-12T22:58:33.965Z,4.63
2023-01-12T23:01:11.305Z,4.00
2023-01-12T23:03:39.650Z,3.50
2023-01-12T23:06:15.297Z,3.63
2023-01-12T23:08:44.885Z,4.57
2023-01-12T23:11:23.563Z,4.80
2023-01-12T23:13:52.867Z,3.60
2023-01-12T23:16:22.197Z,3.40
2023-01-12T23:18:51.018Z,4.00
2023-01-12T23:21:24.160Z,2.43
2023-01-12T23:23:53.430Z,3.50
2023-01-12T23:26:32.933Z,2.23
2023-01-12T23:29:03.230Z,2.50
2023-01-12T23:31:34.090Z,2.70
2023-01-12T23:34:03.190Z,2.47
2023-01-12T23:36:32.555Z,2.60
2023-01-12T23:39:05.012Z,2.70
2023-01-12T23:41:37.722Z,2.60
2023-01-12T23:44:11.665Z,2.53
2023-01-12T23:46:40.935Z,2.77
2023-01-12T23:49:10.587Z,4.50
2023-01-12T23:51:47.986Z,6.33
2023-01-12T23:54:19.374Z,4.03
2023-01-12T23:56:47.395Z,3.83
2023-01-12T23:59:15.689Z,4.00
